Time;durP1;ratioP1;P1;durP2;ratioP2;P2;SDS_P1;SDS_P2;PMS_P1;PMS_P2;Temp;Humidity;BMP_temperature;BMP_pressure;BME280_temperature;BME280_humidity;BME280_pressure;Samples;Min_cycle;Max_cycle;Signal;HPM_P1;HPM_P2
2021/07/04 00:01:48;;;;;;;29.63;6.47;;;;;;;18.84;95.10;99092.42;1801586;79;21779;-79
2021/07/04 00:04:55;;;;;;;18.10;6.58;;;;;;;18.83;95.18;99096.30;1801536;79;21748;-79
2021/07/04 00:08:01;;;;;;;18.12;6.58;;;;;;;18.82;95.64;99093.76;1801563;79;21830;-78
2021/07/04 00:11:11;;;;;;;22.52;6.10;;;;;;;18.85;95.87;99093.25;1802909;79;21375;-79
2021/07/04 00:14:17;;;;;;;26.55;6.67;;;;;;;18.83;95.56;99091.30;1802944;79;21338;-78
2021/07/04 00:17:23;;;;;;;24.75;7.60;;;;;;;18.81;95.86;99092.09;1802136;79;21283;-78
2021/07/04 00:20:30;;;;;;;23.42;6.97;;;;;;;18.85;96.07;99085.77;1802870;79;21288;-79
2021/07/04 00:23:35;;;;;;;24.18;7.30;;;;;;;18.89;95.99;99081.94;1802947;79;21221;-78
2021/07/04 00:26:41;;;;;;;28.70;6.37;;;;;;;18.94;95.84;99080.61;1802957;79;21331;-79
2021/07/04 00:29:47;;;;;;;21.75;6.42;;;;;;;19.01;95.56;99076.27;1802696;79;21287;-78
2021/07/04 00:32:52;;;;;;;27.37;7.33;;;;;;;19.07;95.12;99080.75;1802891;79;21260;-79
2021/07/04 00:35:58;;;;;;;30.43;7.35;;;;;;;19.12;94.70;99074.70;1801918;79;21323;-79
2021/07/04 00:39:03;;;;;;;30.60;6.30;;;;;;;19.18;94.31;99073.37;1803004;79;21331;-79
2021/07/04 00:42:08;;;;;;;23.90;5.95;;;;;;;19.23;93.96;99076.19;1801438;79;21343;-79
2021/07/04 00:45:20;;;;;;;18.65;6.08;;;;;;;19.27;93.58;99080.11;1802434;79;21297;-79
2021/07/04 00:48:27;;;;;;;18.05;6.30;;;;;;;19.31;93.09;99079.88;1801218;79;21291;-79
2021/07/04 00:51:33;;;;;;;16.67;5.90;;;;;;;19.36;92.43;99078.53;1801276;79;21303;-79
2021/07/04 00:54:40;;;;;;;24.43;7.00;;;;;;;19.41;91.78;99073.86;1801283;79;21350;-79
2021/07/04 00:57:46;;;;;;;19.67;6.95;;;;;;;19.46;90.81;99079.17;1802789;79;21795;-79
2021/07/04 01:00:53;;;;;;;14.70;5.50;;;;;;;19.44;89.76;99076.67;1802678;79;21288;-79
2021/07/04 01:03:58;;;;;;;29.60;6.70;;;;;;;19.43;89.30;99074.97;1802738;79;21169;-79
2021/07/04 01:07:04;;;;;;;17.05;6.15;;;;;;;19.40;89.04;99081.90;1801322;79;21838;-78
2021/07/04 01:10:12;;;;;;;22.42;7.22;;;;;;;19.37;89.14;99088.52;1803751;79;21251;-79
2021/07/04 01:13:19;;;;;;;20.72;5.95;;;;;;;19.36;89.20;99084.08;1803974;79;21248;-79
2021/07/04 01:16:28;;;;;;;34.98;6.85;;;;;;;19.30;89.24;99087.36;1801623;79;21204;-78
2021/07/04 01:19:33;;;;;;;21.02;5.90;;;;;;;19.25;89.47;99080.94;1802585;79;21296;-79
2021/07/04 01:22:40;;;;;;;24.45;5.92;;;;;;;19.24;89.42;99081.45;1802726;79;21280;-79
2021/07/04 01:25:50;;;;;;;29.75;5.65;;;;;;;19.25;89.16;99082.32;1803802;79;21267;-78
2021/07/04 01:28:59;;;;;;;17.42;5.05;;;;;;;19.23;88.87;99084.50;1803953;79;21788;-79
2021/07/04 01:32:05;;;;;;;16.73;5.97;;;;;;;19.20;88.66;99087.27;1803883;79;21279;-79
2021/07/04 01:35:10;;;;;;;17.55;4.75;;;;;;;19.19;88.57;99095.27;1802862;79;21184;-79
2021/07/04 01:38:16;;;;;;;21.42;5.87;;;;;;;19.21;88.51;99093.09;1802735;79;21815;-79
2021/07/04 01:41:23;;;;;;;17.98;5.12;;;;;;;19.23;88.20;99090.88;1803751;79;21815;-79
2021/07/04 01:44:30;;;;;;;14.15;4.75;;;;;;;19.25;88.03;99090.08;1803874;79;21566;-79
2021/07/04 01:47:36;;;;;;;17.92;4.92;;;;;;;19.28;87.76;99085.94;1803019;79;21867;-79
2021/07/04 01:50:46;;;;;;;19.10;4.87;;;;;;;19.26;87.56;99079.27;1803790;79;21189;-78
2021/07/04 01:53:55;;;;;;;28.90;5.97;;;;;;;19.24;87.39;99082.84;1802430;79;21215;-78
2021/07/04 01:57:11;;;;;;;22.50;5.05;;;;;;;19.22;87.27;99086.99;1803779;79;21275;-79
2021/07/04 02:00:34;;;;;;;14.10;4.92;;;;;;;19.23;87.20;99082.56;1803784;79;21268;-79
2021/07/04 02:03:38;;;;;;;23.15;4.92;;;;;;;19.22;87.27;99078.67;1734845;82;21327;-79
2021/07/04 02:06:43;;;;;;;18.37;4.70;;;;;;;19.21;87.29;99075.08;1803682;79;21298;-79
2021/07/04 02:09:53;;;;;;;17.95;5.25;;;;;;;19.20;87.38;99079.50;1803777;79;21784;-79
2021/07/04 02:13:04;;;;;;;32.35;4.92;;;;;;;19.18;87.53;99074.20;1803768;79;21300;-78
2021/07/04 02:16:10;;;;;;;24.43;5.35;;;;;;;19.19;87.53;99076.42;1803773;79;21224;-79
2021/07/04 02:19:23;;;;;;;23.77;5.05;;;;;;;19.19;87.52;99075.03;1800969;79;21367;-79
2021/07/04 02:22:34;;;;;;;22.13;5.10;;;;;;;19.17;87.72;99075.86;1801027;79;21342;-79
2021/07/04 02:25:43;;;;;;;14.35;4.53;;;;;;;19.14;87.66;99064.18;1803871;79;21256;-78
2021/07/04 02:28:50;;;;;;;19.17;4.65;;;;;;;19.12;87.55;99065.56;1803808;79;21256;-78
2021/07/04 02:32:00;;;;;;;18.73;5.30;;;;;;;19.10;87.60;99063.06;1803883;79;21303;-78
2021/07/04 02:35:05;;;;;;;21.45;4.62;;;;;;;19.13;87.79;99059.74;1803789;79;21311;-78
2021/07/04 02:38:12;;;;;;;17.27;4.47;;;;;;;19.18;87.80;99056.19;1802153;79;21177;-78
2021/07/04 02:41:18;;;;;;;26.15;4.87;;;;;;;19.22;87.74;99052.34;1803813;79;21295;-78
2021/07/04 02:44:23;;;;;;;25.35;4.08;;;;;;;19.26;87.64;99059.04;1803282;79;21300;-78
2021/07/04 02:47:31;;;;;;;16.80;5.00;;;;;;;19.32;87.43;99064.35;1801956;79;21295;-78
2021/07/04 02:50:38;;;;;;;18.45;5.08;;;;;;;19.34;87.16;99058.56;1802628;79;21752;-78
2021/07/04 02:53:45;;;;;;;19.75;4.25;;;;;;;19.37;87.12;99060.79;1803753;79;21268;-78
2021/07/04 02:56:50;;;;;;;15.80;4.80;;;;;;;19.40;87.15;99065.81;1803717;79;21343;-78
2021/07/04 02:59:58;;;;;;;14.55;4.30;;;;;;;19.41;87.46;99068.31;1803676;79;21272;-78
2021/07/04 03:03:07;;;;;;;16.87;4.80;;;;;;;19.44;87.50;99058.65;1801114;79;21196;-78
2021/07/04 03:06:12;;;;;;;16.70;4.00;;;;;;;19.43;87.20;99061.11;1802718;79;21334;-78
2021/07/04 03:09:18;;;;;;;14.68;4.10;;;;;;;19.47;87.04;99053.94;1802845;79;21938;-78
2021/07/04 03:12:25;;;;;;;17.77;4.45;;;;;;;19.59;86.93;99054.60;1801040;79;21221;-78
2021/07/04 03:15:32;;;;;;;12.85;4.30;;;;;;;19.78;86.71;99056.99;1802612;79;21284;-78
2021/07/04 03:18:37;;;;;;;26.70;4.72;;;;;;;20.02;86.09;99052.70;1801447;79;21339;-78
2021/07/04 03:21:44;;;;;;;13.08;4.83;;;;;;;20.33;85.18;99062.05;1776539;81;21789;-78
2021/07/04 03:24:51;;;;;;;17.65;5.00;;;;;;;20.76;84.01;99060.57;1776554;81;21340;-78
2021/07/04 03:27:57;;;;;;;20.95;3.87;;;;;;;21.20;82.11;99067.88;1775974;81;21836;-79
2021/07/04 03:31:04;;;;;;;16.95;4.55;;;;;;;21.61;80.27;99070.73;1776490;81;21305;-79
2021/07/04 03:34:11;;;;;;;8.13;4.30;;;;;;;22.01;78.69;99069.83;1775849;81;21273;-78
2021/07/04 03:37:19;;;;;;;9.80;4.00;;;;;;;22.44;77.08;99060.55;1775035;81;21276;-79
2021/07/04 03:40:26;;;;;;;10.70;3.62;;;;;;;22.85;75.09;99060.38;1775096;81;22037;-79
2021/07/04 03:43:32;;;;;;;12.55;3.87;;;;;;;23.14;73.36;99064.12;1777407;81;21206;-79
2021/07/04 03:46:39;;;;;;;12.50;3.80;;;;;;;23.37;71.63;99057.55;1777562;81;21792;-78
2021/07/04 03:49:45;;;;;;;11.30;3.83;;;;;;;23.59;70.41;99069.09;1776749;80;21166;-78
2021/07/04 03:52:56;;;;;;;8.95;3.35;;;;;;;23.85;70.04;99073.08;1776082;81;21150;-78
2021/07/04 03:56:01;;;;;;;10.38;3.98;;;;;;;24.13;69.21;99073.63;1777539;81;21269;-79
2021/07/04 03:59:07;;;;;;;17.37;4.67;;;;;;;24.24;66.84;99072.98;1776974;81;21538;-78
2021/07/04 04:02:14;;;;;;;11.68;4.22;;;;;;;24.17;66.96;99069.13;1777554;81;21800;-78
2021/07/04 04:05:20;;;;;;;18.87;3.90;;;;;;;24.08;67.11;99079.27;1777141;81;21931;-78
2021/07/04 04:08:27;;;;;;;12.82;3.80;;;;;;;23.93;66.82;99069.66;1775958;81;21357;-78
2021/07/04 04:11:32;;;;;;;9.40;3.35;;;;;;;23.82;66.97;99082.06;1776284;81;21344;-79
2021/07/04 04:14:40;;;;;;;10.58;3.75;;;;;;;23.70;66.95;99075.45;1776481;81;21226;-78
2021/07/04 04:17:44;;;;;;;8.50;3.58;;;;;;;23.57;66.92;99074.16;1777587;81;21269;-78
2021/07/04 04:20:50;;;;;;;11.48;3.58;;;;;;;23.39;67.53;99072.89;1783599;79;21835;-78
2021/07/04 04:23:55;;;;;;;9.38;3.33;;;;;;;23.15;68.20;99063.02;1803801;79;21145;-78
2021/07/04 04:27:02;;;;;;;14.50;3.50;;;;;;;23.01;69.16;99058.34;1803825;79;21142;-79
2021/07/04 04:30:08;;;;;;;7.95;3.70;;;;;;;22.90;69.34;99061.77;1803832;79;21272;-78
2021/07/04 04:33:14;;;;;;;9.50;3.60;;;;;;;22.87;69.92;99054.80;1803839;79;21153;-79
2021/07/04 04:36:21;;;;;;;6.28;3.20;;;;;;;22.90;70.58;99046.44;1803621;79;21276;-78
2021/07/04 04:39:27;;;;;;;10.23;3.77;;;;;;;22.91;70.56;99046.70;1803780;79;21335;-78
2021/07/04 04:42:34;;;;;;;7.53;3.70;;;;;;;22.93;70.80;99044.47;1803810;79;21327;-78
2021/07/04 04:45:41;;;;;;;8.68;3.25;;;;;;;23.02;71.18;99037.73;1803828;79;21259;-78
2021/07/04 04:48:45;;;;;;;11.75;4.67;;;;;;;23.14;71.26;99040.98;1803808;79;21315;-78
2021/07/04 04:51:50;;;;;;;11.15;5.10;;;;;;;23.28;71.20;99036.97;1803765;79;21783;-78
2021/07/04 04:54:56;;;;;;;11.60;5.00;;;;;;;23.45;71.24;99043.81;1803760;79;21829;-78
2021/07/04 04:58:02;;;;;;;11.95;4.28;;;;;;;23.66;70.91;99047.28;1803885;79;21252;-78
2021/07/04 05:01:07;;;;;;;16.45;4.78;;;;;;;23.91;69.46;99046.23;1803490;79;21287;-78
2021/07/04 05:04:13;;;;;;;10.90;4.72;;;;;;;24.19;69.06;99037.55;1802883;79;22625;-78
2021/07/04 05:07:20;;;;;;;16.45;5.37;;;;;;;24.51;68.21;99040.26;1802887;79;21303;-78
2021/07/04 05:10:24;;;;;;;14.58;5.35;;;;;;;24.77;67.10;99039.94;1801668;79;21299;-78
2021/07/04 05:13:30;;;;;;;12.10;4.53;;;;;;;24.96;66.30;99043.01;1802936;79;21169;-79
2021/07/04 05:16:35;;;;;;;7.08;3.87;;;;;;;25.16;65.56;99041.91;1802800;79;21878;-79
2021/07/04 05:19:41;;;;;;;10.15;3.90;;;;;;;25.27;64.15;99043.17;1801421;79;21331;-79
2021/07/04 05:22:46;;;;;;;14.93;3.67;;;;;;;25.37;62.96;99040.20;1786552;79;21339;-79
2021/07/04 05:25:58;;;;;;;11.00;3.90;;;;;;;25.40;62.12;99032.58;1776792;81;21236;-79
2021/07/04 05:29:00;;;;;;;8.50;3.35;;;;;;;25.51;62.36;99033.27;1776585;81;21184;-79
2021/07/04 05:32:06;;;;;;;9.90;3.08;;;;;;;25.62;60.27;99031.37;1775175;81;21288;-79
2021/07/04 05:35:12;;;;;;;12.45;3.52;;;;;;;25.70;59.91;99028.45;1775101;81;21292;-79
2021/07/04 05:38:22;;;;;;;8.70;4.00;;;;;;;25.69;60.08;99017.81;1777818;81;21826;-80
2021/07/04 05:41:27;;;;;;;8.40;3.60;;;;;;;25.67;60.97;99014.47;1777627;81;21176;-80
2021/07/04 05:44:32;;;;;;;12.13;4.40;;;;;;;25.74;61.05;99019.13;1777646;81;21787;-80
2021/07/04 05:47:37;;;;;;;10.20;3.58;;;;;;;25.84;60.38;99013.94;1777604;81;21165;-77
2021/07/04 05:50:43;;;;;;;8.53;3.50;;;;;;;25.93;60.29;99014.06;1777472;81;21196;-77
2021/07/04 05:53:48;;;;;;;8.13;3.90;;;;;;;25.94;60.46;99008.70;1777602;81;21778;-77
2021/07/04 05:56:53;;;;;;;6.87;3.58;;;;;;;25.99;60.40;98996.83;1777624;81;21153;-78
2021/07/04 05:59:59;;;;;;;7.78;3.47;;;;;;;26.10;60.38;99004.45;1777569;81;21290;-77
2021/07/04 06:03:08;;;;;;;8.75;3.33;;;;;;;26.19;59.25;99008.20;1777568;81;21264;-77
2021/07/04 06:06:13;;;;;;;9.55;3.55;;;;;;;26.18;58.73;99004.32;1776671;81;21377;-78
2021/07/04 06:09:20;;;;;;;8.60;2.85;;;;;;;26.29;58.76;99002.95;1775137;81;21778;-77
2021/07/04 06:12:24;;;;;;;6.47;2.95;;;;;;;26.31;57.22;98996.48;1775707;81;22563;-78
2021/07/04 06:15:31;;;;;;;8.88;3.10;;;;;;;26.38;58.04;98991.85;1776641;81;21885;-78
2021/07/04 06:18:36;;;;;;;6.25;2.58;;;;;;;26.47;57.06;98994.21;1776533;81;21727;-77
2021/07/04 06:21:42;;;;;;;12.00;3.42;;;;;;;26.55;55.28;98998.27;1775122;81;21763;-77
2021/07/04 06:24:48;;;;;;;12.28;3.12;;;;;;;26.63;54.85;99008.72;1793367;80;21950;-77
2021/07/04 06:27:54;;;;;;;7.25;2.60;;;;;;;26.65;54.96;99007.28;1795582;80;21335;-77
2021/07/04 06:31:00;;;;;;;4.75;2.40;;;;;;;26.68;54.54;98998.25;1794697;80;21189;-78
2021/07/04 06:34:05;;;;;;;9.75;2.87;;;;;;;26.72;54.63;99009.64;1795385;80;21717;-78
2021/07/04 06:37:10;;;;;;;3.70;2.50;;;;;;;26.70;53.06;98997.34;1794930;80;21319;-77
2021/07/04 06:40:16;;;;;;;5.60;2.80;;;;;;;26.68;53.95;98989.83;1795383;80;21319;-77
2021/07/04 06:43:21;;;;;;;9.60;2.80;;;;;;;26.71;54.80;98979.37;1795518;80;21177;-78
2021/07/04 06:46:31;;;;;;;6.70;2.40;;;;;;;26.78;53.82;98978.13;1794035;80;22466;-78
2021/07/04 06:49:38;;;;;;;11.48;3.00;;;;;;;26.84;53.32;98982.47;1795577;80;21355;-78
2021/07/04 06:52:43;;;;;;;5.22;2.80;;;;;;;26.91;55.66;98987.91;1794514;80;21326;-78
2021/07/04 06:55:50;;;;;;;3.25;2.37;;;;;;;26.96;53.51;98983.58;1795389;80;21901;-77
2021/07/04 06:58:56;;;;;;;6.40;2.70;;;;;;;26.96;53.47;98986.93;1795409;80;21288;-77
2021/07/04 07:02:01;;;;;;;8.38;2.87;;;;;;;26.95;54.30;98988.09;1794156;80;21205;-77
2021/07/04 07:05:06;;;;;;;6.00;2.95;;;;;;;26.92;54.79;98987.34;1795344;80;21299;-78
2021/07/04 07:08:13;;;;;;;8.40;2.90;;;;;;;26.90;55.35;98989.03;1794332;80;21327;-78
2021/07/04 07:11:19;;;;;;;5.47;2.70;;;;;;;27.04;56.31;98988.99;1794747;80;21842;-77
2021/07/04 07:14:25;;;;;;;4.58;2.08;;;;;;;27.18;54.23;98982.78;1795348;80;21831;-78
2021/07/04 07:17:26;;;;;;;6.72;2.75;;;;;;;27.35;53.71;98985.48;1793833;80;22445;-78
2021/07/04 07:20:35;;;;;;;4.47;2.67;;;;;;;27.49;51.32;98988.47;1795394;80;21161;-78
2021/07/04 07:23:40;;;;;;;4.05;2.50;;;;;;;27.62;51.62;98992.91;1792989;80;21319;-77
2021/07/04 07:26:48;;;;;;;10.08;2.95;;;;;;;27.75;52.33;98985.84;1776698;81;21303;-78
2021/07/04 07:29:55;;;;;;;6.17;2.80;;;;;;;27.87;53.27;98988.65;1776758;81;21304;-77
2021/07/04 07:33:01;;;;;;;5.60;2.10;;;;;;;27.91;53.08;98977.02;1776773;81;21192;-77
2021/07/04 07:36:06;;;;;;;9.15;2.65;;;;;;;27.98;50.74;98973.16;1776539;81;21838;-79
2021/07/04 07:39:12;;;;;;;4.05;2.10;;;;;;;28.06;48.61;98973.77;1776021;81;21724;-79
2021/07/04 07:42:18;;;;;;;5.05;2.37;;;;;;;28.13;48.40;98970.48;1777543;81;21287;-79
2021/07/04 07:45:24;;;;;;;7.17;2.67;;;;;;;28.12;47.50;98970.23;1777557;81;21259;-79
2021/07/04 07:48:30;;;;;;;6.40;2.22;;;;;;;28.03;49.86;98954.73;1777406;81;21787;-78
2021/07/04 07:51:39;;;;;;;5.87;2.10;;;;;;;28.10;48.13;98964.95;1773680;81;21299;-78
2021/07/04 07:54:47;;;;;;;6.50;2.00;;;;;;;28.13;47.06;98956.42;1776600;81;21259;-79
2021/07/04 07:57:54;;;;;;;6.97;2.10;;;;;;;28.06;47.63;98951.30;1776659;81;21192;-79
2021/07/04 08:01:02;;;;;;;8.83;2.60;;;;;;;28.05;48.90;98944.02;1776592;81;21306;-79
2021/07/04 08:04:08;;;;;;;5.87;2.35;;;;;;;28.14;48.84;98936.45;1776616;81;21299;-79
2021/07/04 08:07:15;;;;;;;8.20;2.33;;;;;;;28.27;50.54;98939.69;1775135;81;21818;-78
2021/07/04 08:10:22;;;;;;;4.47;2.20;;;;;;;28.33;47.89;98936.75;1777656;81;21153;-79
2021/07/04 08:13:29;;;;;;;6.28;2.20;;;;;;;28.19;47.20;98947.55;1777681;81;21311;-79
2021/07/04 08:16:35;;;;;;;5.47;2.20;;;;;;;28.19;47.17;98933.48;1776038;81;21153;-78
2021/07/04 08:19:40;;;;;;;8.65;2.35;;;;;;;28.39;46.84;98936.29;1777631;81;21259;-78
2021/07/04 08:22:47;;;;;;;3.65;1.65;;;;;;;28.63;48.24;98954.12;1777565;81;21323;-79
2021/07/04 08:25:53;;;;;;;7.70;2.30;;;;;;;28.82;44.63;98960.84;1786557;80;21839;-79
2021/07/04 08:29:00;;;;;;;3.00;1.70;;;;;;;28.89;45.45;98965.41;1796504;80;21799;-79
2021/07/04 08:32:05;;;;;;;8.55;2.27;;;;;;;29.02;46.83;98974.86;1796463;80;21776;-79
2021/07/04 08:35:11;;;;;;;6.58;2.75;;;;;;;29.12;46.03;98988.60;1796500;80;21145;-79
2021/07/04 08:38:16;;;;;;;9.18;2.40;;;;;;;29.09;46.89;98986.47;1796348;80;21296;-79
2021/07/04 08:41:21;;;;;;;6.00;2.70;;;;;;;28.96;47.49;98988.86;1796508;80;21248;-79
2021/07/04 08:44:27;;;;;;;7.00;2.42;;;;;;;28.90;48.08;98992.97;1796481;80;21256;-79
2021/07/04 08:47:33;;;;;;;6.37;2.50;;;;;;;28.89;49.15;98996.37;1795422;80;21299;-79
2021/07/04 08:50:41;;;;;;;4.55;2.25;;;;;;;28.88;48.81;98994.69;1795451;80;21182;-79
2021/07/04 08:53:46;;;;;;;8.03;2.60;;;;;;;28.86;48.15;98970.28;1794149;80;21747;-79
2021/07/04 08:56:56;;;;;;;8.10;2.85;;;;;;;29.00;48.97;98968.75;1796489;80;21744;-79
2021/07/04 09:00:01;;;;;;;9.75;2.77;;;;;;;29.15;48.41;98962.62;1796485;80;21141;-79
2021/07/04 09:03:07;;;;;;;6.75;2.40;;;;;;;29.15;48.41;98962.62;1796413;80;21291;-79
2021/07/04 09:06:12;;;;;;;6.47;2.40;;;;;;;29.25;48.48;98955.23;1796534;80;21276;-79
2021/07/04 09:09:35;;;;;;;7.30;2.58;;;;;;;29.36;48.27;98956.29;1796392;80;21300;-79
2021/07/04 09:12:53;;;;;;;6.17;2.47;;;;;;;29.35;47.49;98937.16;1796456;80;21306;-79
2021/07/04 09:16:23;;;;;;;9.70;2.45;;;;;;;29.23;47.82;98929.41;1796471;80;21775;-79
2021/07/04 09:19:29;;;;;;;8.30;2.33;;;;;;;29.17;47.24;98924.27;1794852;80;21193;-79
2021/07/04 09:22:45;;;;;;;5.28;1.98;;;;;;;29.13;47.47;98914.86;1796456;80;21824;-79
2021/07/04 09:25:50;;;;;;;4.12;2.33;;;;;;;29.13;46.90;98910.05;1797165;79;21236;-79
2021/07/04 09:28:55;;;;;;;12.35;2.60;;;;;;;29.11;45.61;98912.94;1803759;79;21251;-79
2021/07/04 09:32:01;;;;;;;8.18;2.60;;;;;;;29.13;46.41;98919.91;1801535;79;21806;-79
2021/07/04 09:35:17;;;;;;;5.08;2.20;;;;;;;29.11;46.91;98926.44;1802708;79;21870;-79
2021/07/04 09:38:23;;;;;;;8.98;2.80;;;;;;;29.10;47.31;98923.38;1801273;79;21871;-79
2021/07/04 09:41:28;;;;;;;7.60;2.80;;;;;;;29.21;48.05;98917.64;1803790;79;21299;-79
2021/07/04 09:44:35;;;;;;;6.03;2.70;;;;;;;29.21;48.05;98917.64;1803687;79;21292;-79
2021/07/04 09:47:39;;;;;;;5.70;2.87;;;;;;;29.25;49.08;98926.25;1803771;79;21307;-79
2021/07/04 09:50:49;;;;;;;9.33;2.12;;;;;;;29.27;49.11;98918.31;1803731;79;21263;-79
2021/07/04 09:53:57;;;;;;;8.85;2.72;;;;;;;29.27;49.11;98918.31;1803796;79;21149;-79
2021/07/04 09:57:06;;;;;;;6.80;2.20;;;;;;;29.35;48.93;98915.22;1803665;79;21165;-79
2021/07/04 10:00:24;;;;;;;3.17;2.45;;;;;;;29.33;46.95;98909.93;1803809;79;21271;-79
2021/07/04 10:03:29;;;;;;;3.83;2.00;;;;;;;29.29;47.13;98905.54;1803752;79;21276;-79
2021/07/04 10:06:35;;;;;;;4.47;1.90;;;;;;;29.24;46.20;98911.94;1803909;79;21264;-78
2021/07/04 10:09:40;;;;;;;3.90;2.12;;;;;;;29.20;46.92;98915.99;1786368;79;21803;-79
2021/07/04 10:12:46;;;;;;;3.98;1.92;;;;;;;29.14;46.27;98910.30;1803709;79;22113;-79
2021/07/04 10:15:52;;;;;;;6.33;2.20;;;;;;;29.14;46.27;98910.30;1803779;79;21137;-79
2021/07/04 10:18:57;;;;;;;9.60;2.72;;;;;;;29.05;47.01;98912.29;1803687;79;21831;-79
2021/07/04 10:22:05;;;;;;;4.37;2.08;;;;;;;29.05;47.01;98912.29;1803685;79;21791;-79
2021/07/04 10:25:12;;;;;;;2.90;2.35;;;;;;;28.99;47.77;98903.20;1803506;79;21287;-79
2021/07/04 10:28:20;;;;;;;5.08;2.55;;;;;;;28.97;48.07;98906.08;1806986;79;21187;-78
2021/07/04 10:31:26;;;;;;;7.53;2.75;;;;;;;28.98;48.26;98924.61;1812236;79;21182;-79
2021/07/04 10:34:31;;;;;;;6.80;2.30;;;;;;;29.01;49.64;98897.22;1812253;79;21260;-79
2021/07/04 10:37:39;;;;;;;6.28;2.33;;;;;;;29.01;49.64;98897.22;1812265;79;21335;-79
2021/07/04 10:40:44;;;;;;;7.47;2.42;;;;;;;29.06;49.66;98894.81;1812075;79;21216;-79
2021/07/04 10:44:03;;;;;;;5.20;2.62;;;;;;;29.07;49.69;98897.88;1811978;79;21299;-79
2021/07/04 10:47:11;;;;;;;6.78;2.55;;;;;;;29.02;51.13;98890.42;1812284;79;21827;-79
2021/07/04 10:50:20;;;;;;;10.23;2.85;;;;;;;29.01;50.69;98885.97;1812278;79;21788;-79
2021/07/04 10:53:54;;;;;;;6.83;2.67;;;;;;;29.01;50.69;98877.52;1812409;79;21307;-78
2021/07/04 10:57:14;;;;;;;8.65;3.35;;;;;;;29.06;51.57;98877.93;1811652;79;21158;-79
2021/07/04 11:00:21;;;;;;;6.12;2.77;;;;;;;29.04;51.22;98871.23;1812434;79;21291;-79
2021/07/04 11:03:34;;;;;;;5.55;2.95;;;;;;;29.02;51.26;98874.36;1812288;79;21330;-79
2021/07/04 11:07:03;;;;;;;9.20;3.00;;;;;;;28.95;54.17;98847.32;1809980;79;21176;-79
2021/07/04 11:10:13;;;;;;;7.62;3.20;;;;;;;28.95;54.17;98847.32;1809577;79;21171;-79
2021/07/04 11:13:26;;;;;;;5.08;3.08;;;;;;;29.11;53.48;98857.47;1812407;79;21264;-79
2021/07/04 11:16:31;;;;;;;6.80;3.30;;;;;;;29.18;52.34;98853.58;1812306;79;21264;-79
2021/07/04 11:19:38;;;;;;;8.65;3.35;;;;;;;29.10;51.23;98848.78;1812236;79;21775;-79
2021/07/04 11:23:12;;;;;;;6.25;3.35;;;;;;;29.09;52.03;98854.75;1812247;79;21196;-79
2021/07/04 11:26:23;;;;;;;5.10;2.92;;;;;;;29.09;52.03;98854.75;1812264;79;21291;-79
2021/07/04 11:29:28;;;;;;;7.97;3.35;;;;;;;29.05;51.66;98848.14;1803314;79;21303;-79
2021/07/04 11:32:34;;;;;;;6.92;2.87;;;;;;;29.02;51.79;98835.55;1803822;79;21257;-79
2021/07/04 11:35:50;;;;;;;5.58;3.33;;;;;;;29.03;52.61;98841.44;1803810;79;21196;-79
2021/07/04 11:39:02;;;;;;;5.45;3.42;;;;;;;29.05;54.16;98836.30;1803849;79;21193;-79
2021/07/04 11:42:09;;;;;;;10.08;3.02;;;;;;;29.11;54.40;98843.97;1801250;79;21200;-78
2021/07/04 11:45:24;;;;;;;9.73;3.27;;;;;;;29.13;52.74;98839.68;1802133;79;21331;-78
2021/07/04 11:48:33;;;;;;;10.03;3.50;;;;;;;29.03;52.74;98847.08;1802787;79;21346;-79
2021/07/04 11:51:53;;;;;;;8.15;3.40;;;;;;;29.03;52.74;98847.08;1786954;79;21264;-79
2021/07/04 11:55:01;;;;;;;6.67;3.22;;;;;;;29.06;54.00;98841.34;1803879;79;21283;-79
2021/07/04 11:58:06;;;;;;;7.47;2.62;;;;;;;29.06;54.43;98863.86;1803632;79;21327;-79
2021/07/04 12:01:12;;;;;;;8.80;3.35;;;;;;;29.06;54.43;98863.86;1803398;79;21354;-78
2021/07/04 12:04:16;;;;;;;7.40;2.98;;;;;;;29.07;54.15;98852.84;1785215;79;21901;-79
2021/07/04 12:07:24;;;;;;;4.92;2.72;;;;;;;29.06;53.41;98856.82;1802724;79;21831;-79
2021/07/04 12:10:30;;;;;;;8.75;2.75;;;;;;;29.06;53.41;98856.82;1803679;79;21126;-79
2021/07/04 12:13:41;;;;;;;10.80;3.10;;;;;;;29.10;53.26;98856.41;1801240;79;21320;-79
2021/07/04 12:16:47;;;;;;;6.03;2.10;;;;;;;29.14;52.12;98870.06;1801293;79;21299;-79
2021/07/04 12:19:54;;;;;;;7.12;3.02;;;;;;;29.13;51.61;98853.75;1802743;79;21283;-79
2021/07/04 12:23:06;;;;;;;9.93;2.92;;;;;;;29.12;52.96;98850.67;1803241;79;21181;-79
2021/07/04 12:26:15;;;;;;;6.65;3.15;;;;;;;29.12;52.96;98850.67;1803780;79;21819;-79
2021/07/04 12:29:19;;;;;;;;;;;;;;;29.16;52.08;98842.39;1807012;79;21291;-79
2021/07/04 12:32:24;;;;;;;10.18;3.30;;;;;;;29.14;51.62;98849.77;1811998;79;20264;-79
2021/07/04 12:35:48;;;;;;;7.72;2.83;;;;;;;29.13;51.82;98848.70;1810872;79;21303;-79
2021/07/04 12:38:56;;;;;;;6.30;2.95;;;;;;;29.12;51.82;98841.40;1811231;79;21826;-79
2021/07/04 12:42:02;;;;;;;6.58;2.60;;;;;;;29.13;52.66;98849.53;1811230;79;21298;-79
2021/07/04 12:45:16;;;;;;;4.22;2.80;;;;;;;29.14;52.75;98856.81;1811401;79;21342;-79
2021/07/04 12:48:21;;;;;;;9.35;3.42;;;;;;;29.16;52.04;98853.06;1809814;79;21291;-79
2021/07/04 12:51:37;;;;;;;8.60;2.92;;;;;;;29.17;52.63;98861.78;1809980;79;21307;-79
2021/07/04 12:54:48;;;;;;;5.37;2.52;;;;;;;29.19;52.81;98857.22;1811441;79;21773;-78
2021/07/04 12:57:54;;;;;;;5.00;2.60;;;;;;;29.18;50.97;98850.76;1810888;79;21873;-79
2021/07/04 13:01:01;;;;;;;6.62;2.67;;;;;;;29.19;50.69;98855.81;1809844;79;21342;-78
2021/07/04 13:04:19;;;;;;;4.12;2.33;;;;;;;29.15;50.59;98847.78;1811703;79;21292;-79
2021/07/04 13:07:26;;;;;;;7.85;3.12;;;;;;;29.13;51.17;98851.52;1809954;79;21204;-79
2021/07/04 13:10:42;;;;;;;6.75;3.52;;;;;;;29.08;53.67;98842.67;1811428;79;21330;-79
2021/07/04 13:13:49;;;;;;;7.25;2.77;;;;;;;29.08;53.67;98842.67;1810521;79;21330;-79
2021/07/04 13:17:00;;;;;;;7.70;3.50;;;;;;;29.04;52.44;98841.69;1786980;79;21801;-79
2021/07/04 13:20:12;;;;;;;9.23;3.10;;;;;;;29.02;53.10;98835.55;1809922;79;21288;-79
2021/07/04 13:23:18;;;;;;;4.65;2.98;;;;;;;29.08;54.17;98837.05;1809846;79;21240;-79
2021/07/04 13:26:25;;;;;;;9.43;2.90;;;;;;;29.09;52.19;98827.44;1744376;79;21326;-79
2021/07/04 13:29:33;;;;;;;6.95;2.87;;;;;;;29.09;52.19;98827.44;1786595;79;21268;-79
2021/07/04 13:32:38;;;;;;;8.15;3.40;;;;;;;29.04;53.48;98826.20;1811314;79;21291;-79
2021/07/04 13:35:46;;;;;;;9.53;3.33;;;;;;;28.99;53.62;98815.95;1811406;79;21290;-79
2021/07/04 13:39:08;;;;;;;5.08;2.92;;;;;;;28.96;52.84;98810.16;1811411;79;21220;-79
2021/07/04 13:42:13;;;;;;;3.85;2.70;;;;;;;28.87;50.90;98808.73;1812258;79;21252;-79
2021/07/04 13:45:35;;;;;;;9.65;3.40;;;;;;;28.87;50.90;98808.73;1812289;79;21783;-79
2021/07/04 13:48:41;;;;;;;6.72;2.67;;;;;;;28.84;53.33;98802.34;1812280;79;21746;-79
2021/07/04 13:51:47;;;;;;;9.83;3.33;;;;;;;28.86;53.27;98799.22;1812305;79;21260;-79
2021/07/04 13:54:53;;;;;;;7.58;3.22;;;;;;;28.85;52.99;98792.77;1802626;79;21848;-80
2021/07/04 13:57:59;;;;;;;8.53;3.52;;;;;;;28.85;52.99;98792.77;1809392;78;21604;-80
2021/07/04 14:01:05;;;;;;;6.37;3.65;;;;;;;28.91;53.32;98814.52;1809948;79;21303;-79
2021/07/04 14:04:11;;;;;;;8.65;3.45;;;;;;;28.92;52.78;98807.14;1811595;79;21874;-79
2021/07/04 14:07:17;;;;;;;9.50;3.40;;;;;;;28.94;52.56;98826.53;1808393;79;21839;-80
2021/07/04 14:10:23;;;;;;;11.03;3.50;;;;;;;29.00;52.53;98825.22;1780191;80;21220;-79
2021/07/04 14:13:28;;;;;;;6.50;3.10;;;;;;;29.06;52.92;98832.31;1780307;80;21693;-79
2021/07/04 14:16:33;;;;;;;6.83;3.30;;;;;;;28.99;54.20;98812.31;1780362;80;21208;-79
2021/07/04 14:19:40;;;;;;;6.50;2.87;;;;;;;28.99;54.20;98812.31;1780323;80;21799;-79
2021/07/04 14:22:46;;;;;;;10.20;3.90;;;;;;;28.97;54.43;98816.02;1780363;80;21839;-79
2021/07/04 14:25:52;;;;;;;5.95;2.87;;;;;;;28.93;54.19;98794.72;1778582;80;21207;-79
2021/07/04 14:28:57;;;;;;;7.20;3.52;;;;;;;28.93;54.19;98794.72;1779577;80;21208;-79
2021/07/04 14:32:03;;;;;;;12.00;3.25;;;;;;;28.99;54.58;98777.12;1776411;80;21555;-79
2021/07/04 14:35:10;;;;;;;5.67;3.10;;;;;;;29.02;53.37;98769.41;1777840;80;21299;-79
2021/07/04 14:38:16;;;;;;;8.58;3.62;;;;;;;28.96;54.34;98750.47;1780513;80;21260;-79
2021/07/04 14:41:21;;;;;;;9.98;3.92;;;;;;;28.89;53.75;98740.30;1779808;80;21322;-80